createdAt,value
2023-03-05T00:02:06.629Z,69.17
2023-03-05T00:07:12.424Z,69.27
2023-03-05T00:12:15.529Z,69.52
2023-03-05T00:17:18.950Z,69.45
2023-03-05T00:22:22.113Z,69.86
2023-03-05T00:27:25.060Z,70.24
2023-03-05T00:32:28.252Z,70.50
2023-03-05T00:37:31.389Z,70.84
2023-03-05T00:42:38.851Z,70.96
2023-03-05T00:47:41.906Z,71.12
2023-03-05T00:52:45.011Z,71.39
2023-03-05T00:57:48.126Z,71.72
2023-03-05T01:02:51.100Z,71.52
2023-03-05T01:07:55.967Z,72.30
2023-03-05T01:12:58.884Z,71.82
2023-03-05T01:18:01.870Z,71.90
2023-03-05T01:23:04.867Z,71.72
2023-03-05T01:28:08.867Z,71.61
2023-03-05T01:33:11.805Z,72.35
2023-03-05T01:38:16.971Z,71.98
2023-03-05T01:43:28.767Z,72.80
2023-03-05T01:48:31.781Z,72.40
2023-03-05T01:53:34.880Z,72.80
2023-03-05T01:58:39.923Z,72.97
2023-03-05T02:03:43.190Z,73.83
2023-03-05T02:08:46.156Z,74.04
2023-03-05T02:13:49.575Z,74.21
2023-03-05T02:18:52.686Z,74.39
2023-03-05T02:23:55.692Z,74.78
2023-03-05T02:29:02.249Z,75.45
2023-03-05T02:34:06.469Z,74.97
2023-03-05T02:39:10.034Z,75.08
2023-03-05T02:44:12.940Z,75.13
2023-03-05T02:49:16.049Z,75.32
2023-03-05T02:54:19.059Z,75.56
2023-03-05T02:59:22.166Z,75.27
2023-03-05T03:04:26.094Z,75.72
2023-03-05T03:09:29.469Z,75.90
2023-03-05T03:14:39.298Z,76.58
2023-03-05T03:19:43.385Z,76.44
2023-03-05T03:24:46.281Z,77.01
2023-03-05T03:29:49.424Z,77.44
2023-03-05T03:34:52.430Z,77.80
2023-03-05T03:39:55.445Z,77.52
2023-03-05T03:44:58.546Z,78.01
2023-03-05T03:50:01.662Z,77.85
2023-03-05T03:55:05.128Z,77.79
2023-03-05T04:00:09.728Z,77.52
2023-03-05T04:05:12.725Z,77.23
2023-03-05T04:10:15.728Z,77.18
2023-03-05T04:15:19.054Z,77.17
2023-03-05T04:20:21.948Z,77.01
2023-03-05T04:25:24.884Z,77.32
2023-03-05T04:30:27.850Z,77.29
2023-03-05T04:35:31.119Z,77.84
2023-03-05T04:40:34.653Z,77.92
2023-03-05T04:45:40.711Z,77.93
2023-03-05T04:50:43.767Z,78.18
2023-03-05T04:55:46.910Z,78.93
2023-03-05T05:00:49.887Z,79.39
2023-03-05T05:05:57.194Z,79.83
2023-03-05T05:11:03.014Z,80.34
2023-03-05T05:16:09.299Z,81.26
2023-03-05T05:21:14.305Z,81.98
2023-03-05T05:26:17.311Z,82.20
2023-03-05T05:31:20.319Z,82.96
2023-03-05T05:36:23.426Z,84.15
2023-03-05T05:41:26.433Z,86.70
2023-03-05T05:46:29.669Z,85.10
2023-03-05T05:51:32.656Z,85.12
2023-03-05T05:56:35.782Z,81.91
2023-03-05T06:01:38.897Z,75.61
2023-03-05T06:06:42.182Z,75.11
2023-03-05T06:11:45.177Z,75.55
2023-03-05T06:16:48.445Z,76.32
2023-03-05T06:21:51.508Z,80.76
2023-03-05T06:26:54.520Z,75.22
2023-03-05T06:31:57.673Z,73.62
2023-03-05T06:37:00.738Z,71.28
2023-03-05T06:42:03.739Z,66.77
2023-03-05T06:47:09.418Z,60.61
2023-03-05T06:52:13.029Z,56.54
2023-03-05T06:57:16.036Z,53.88
2023-03-05T07:02:19.489Z,51.37
2023-03-05T07:07:22.663Z,50.13
2023-03-05T07:12:25.766Z,48.97
2023-03-05T07:17:28.781Z,48.75
2023-03-05T07:22:32.204Z,47.23
2023-03-05T07:27:37.147Z,46.67
2023-03-05T07:32:40.455Z,46.34
2023-03-05T07:37:43.584Z,45.50
2023-03-05T07:42:46.468Z,45.09
2023-03-05T07:47:51.070Z,44.62
2023-03-05T07:52:55.772Z,43.51
2023-03-05T07:57:58.969Z,43.75
2023-03-05T08:03:02.187Z,42.75
2023-03-05T08:08:05.790Z,41.99
2023-03-05T08:13:09.022Z,41.18
2023-03-05T08:18:13.966Z,42.81
2023-03-05T08:23:16.971Z,44.16
2023-03-05T08:28:20.085Z,45.88
2023-03-05T08:33:23.198Z,46.13
2023-03-05T08:38:26.954Z,46.63
2023-03-05T08:43:31.466Z,47.13
2023-03-05T08:48:35.273Z,48.96
2023-03-05T08:53:38.785Z,50.71
2023-03-05T08:58:42.445Z,52.18
2023-03-05T09:03:45.528Z,52.86
2023-03-05T09:08:48.554Z,53.60
2023-03-05T09:13:51.769Z,54.85
2023-03-05T09:18:54.756Z,55.95
2023-03-05T09:24:00.146Z,56.97
2023-03-05T09:29:03.748Z,57.38
2023-03-05T09:34:08.392Z,57.18
2023-03-05T09:39:11.902Z,56.99
2023-03-05T09:44:30.059Z,56.34
2023-03-05T09:50:02.046Z,55.38
2023-03-05T09:55:30.038Z,54.55
2023-03-05T10:00:45.363Z,53.35
2023-03-05T10:05:58.576Z,53.02
2023-03-05T10:11:08.829Z,53.75
2023-03-05T10:16:33.109Z,53.08
2023-03-05T10:21:57.172Z,51.65
2023-03-05T10:27:14.547Z,52.01
2023-03-05T10:32:45.181Z,51.60
2023-03-05T10:38:14.384Z,49.37
2023-03-05T10:43:37.564Z,47.79
2023-03-05T10:48:46.609Z,46.83
2023-03-05T10:54:02.213Z,48.52
2023-03-05T10:59:05.116Z,49.48
2023-03-05T11:04:26.549Z,50.52
2023-03-05T11:09:32.731Z,51.90
2023-03-05T11:33:20.633Z,47.71
2023-03-05T11:38:26.648Z,46.57
2023-03-05T11:43:31.480Z,45.72
2023-03-05T11:48:40.107Z,48.39
2023-03-05T11:53:46.333Z,52.40
2023-03-05T11:59:14.308Z,53.28
2023-03-05T12:04:18.561Z,55.07
2023-03-05T12:09:25.856Z,57.84
2023-03-05T12:14:58.664Z,63.24
2023-03-05T12:20:40.688Z,66.28
2023-03-05T12:25:59.464Z,68.13
2023-03-05T12:31:09.600Z,67.90
2023-03-05T12:36:22.075Z,67.46
2023-03-05T12:41:27.961Z,65.69
2023-03-05T12:46:35.964Z,63.28
2023-03-05T12:51:41.958Z,60.72
2023-03-05T12:56:47.384Z,59.05
2023-03-05T13:02:03.834Z,59.72
2023-03-05T13:07:15.529Z,59.59
2023-03-05T13:12:18.927Z,58.17
2023-03-05T13:17:35.877Z,57.35
2023-03-05T13:22:39.182Z,54.57
2023-03-05T13:27:43.598Z,50.48
2023-03-05T13:32:52.391Z,50.81
2023-03-05T13:37:57.183Z,50.34
2023-03-05T13:43:20.828Z,50.24
2023-03-05T13:48:25.656Z,49.59
2023-03-05T13:53:31.016Z,49.80
2023-03-05T13:58:40.783Z,49.11
2023-03-05T14:03:44.095Z,49.77
2023-03-05T14:08:53.248Z,49.71
2023-03-05T14:14:06.764Z,49.89
2023-03-05T14:19:32.126Z,50.12
2023-03-05T14:24:35.235Z,50.52
2023-03-05T14:29:38.354Z,50.23
2023-03-05T14:34:42.849Z,50.45
2023-03-05T14:40:00.981Z,51.17
2023-03-05T14:45:18.530Z,51.62
2023-03-05T14:50:24.610Z,52.37
2023-03-05T14:55:32.040Z,52.65
2023-03-05T15:00:35.428Z,52.68
2023-03-05T15:05:39.559Z,53.43
2023-03-05T15:10:43.185Z,54.08
2023-03-05T15:15:48.124Z,54.69
2023-03-05T15:20:54.934Z,55.13
2023-03-05T15:25:58.011Z,55.23
2023-03-05T15:31:01.354Z,55.30
2023-03-05T15:36:05.587Z,55.39
2023-03-05T15:41:08.568Z,55.08
2023-03-05T15:46:11.735Z,55.08
2023-03-05T15:51:14.889Z,55.51
2023-03-05T15:56:18.570Z,57.11
2023-03-05T16:01:23.572Z,62.04
2023-03-05T16:06:26.782Z,66.32
2023-03-05T16:11:32.802Z,67.40
2023-03-05T16:16:36.699Z,68.34
2023-03-05T16:21:40.045Z,70.71
2023-03-05T16:26:43.439Z,71.41
2023-03-05T16:31:47.782Z,72.31
2023-03-05T16:36:52.990Z,73.06
2023-03-05T16:41:57.973Z,74.10
2023-03-05T16:47:01.129Z,75.51
2023-03-05T16:52:17.736Z,76.97
2023-03-05T16:57:24.197Z,77.72
2023-03-05T17:02:27.408Z,79.18
2023-03-05T17:07:30.605Z,80.15
2023-03-05T17:12:33.726Z,80.04
2023-03-05T17:17:38.671Z,80.79
2023-03-05T17:22:41.887Z,82.04
2023-03-05T17:27:44.995Z,83.11
2023-03-05T17:32:48.095Z,83.77
2023-03-05T17:37:51.924Z,84.18
2023-03-05T17:42:55.234Z,85.35
2023-03-05T17:47:58.860Z,85.91
2023-03-05T17:53:02.077Z,85.84
2023-03-05T17:58:05.284Z,86.19
2023-03-05T18:03:08.489Z,87.09
2023-03-05T18:08:11.599Z,88.49
2023-03-05T18:13:14.615Z,88.01
2023-03-05T18:18:18.603Z,88.49
2023-03-05T18:23:21.880Z,88.68
2023-03-05T18:28:26.087Z,88.88
2023-03-05T18:33:29.189Z,89.11
2023-03-05T18:38:32.605Z,89.84
2023-03-05T18:43:35.824Z,90.64
2023-03-05T18:48:39.026Z,90.86
2023-03-05T18:53:42.156Z,91.61
2023-03-05T18:58:45.652Z,92.28
2023-03-05T19:03:49.427Z,93.08
2023-03-05T19:08:57.506Z,93.05
2023-03-05T19:14:00.620Z,92.99
2023-03-05T19:19:16.605Z,93.04
2023-03-05T19:24:24.218Z,93.41
2023-03-05T19:29:33.065Z,94.29
2023-03-05T19:34:37.220Z,95.50
2023-03-05T19:39:40.646Z,95.38
2023-03-05T19:44:43.746Z,95.50
2023-03-05T19:49:46.952Z,96.06
2023-03-05T19:54:50.161Z,95.80
2023-03-05T19:59:53.996Z,96.24
2023-03-05T20:04:57.809Z,96.67
2023-03-05T20:10:01.076Z,96.08
2023-03-05T20:15:04.473Z,96.40
2023-03-05T20:20:08.586Z,96.15
2023-03-05T20:25:13.634Z,95.90
2023-03-05T20:30:18.073Z,96.21
2023-03-05T20:35:21.904Z,96.98
2023-03-05T20:40:25.004Z,97.84
2023-03-05T20:45:28.228Z,98.20
2023-03-05T20:50:33.597Z,97.93
2023-03-05T20:55:36.696Z,97.61
2023-03-05T21:00:40.383Z,96.98
2023-03-05T21:05:43.428Z,97.51
2023-03-05T21:10:46.739Z,98.14
2023-03-05T21:15:49.847Z,98.27
2023-03-05T21:20:52.971Z,98.80
2023-03-05T21:25:56.094Z,98.91
2023-03-05T21:31:06.966Z,99.40
2023-03-05T21:36:10.380Z,99.48
2023-03-05T21:41:13.484Z,99.64
2023-03-05T21:46:16.674Z,100.00
2023-03-05T21:51:22.772Z,100.00
2023-03-05T21:56:26.592Z,100.00
2023-03-05T22:01:29.742Z,100.00
2023-03-05T22:06:32.802Z,100.00
2023-03-05T22:11:36.191Z,100.00
2023-03-05T22:16:39.253Z,100.00
2023-03-05T22:21:42.335Z,100.00
2023-03-05T22:26:45.455Z,100.00
2023-03-05T22:31:48.655Z,100.00
2023-03-05T22:36:51.767Z,100.00
2023-03-05T22:41:55.069Z,99.98
2023-03-05T22:46:58.178Z,99.81
2023-03-05T22:52:01.286Z,99.97
2023-03-05T22:57:05.043Z,99.64
2023-03-05T23:02:08.020Z,99.72
2023-03-05T23:07:11.048Z,99.59
2023-03-05T23:12:14.246Z,99.82
2023-03-05T23:17:17.475Z,99.65
2023-03-05T23:22:20.879Z,99.91
2023-03-05T23:27:23.989Z,99.85
2023-03-05T23:32:30.794Z,99.89
2023-03-05T23:37:33.888Z,99.71
2023-03-05T23:42:38.438Z,99.80
2023-03-05T23:47:41.743Z,100.00
2023-03-05T23:52:45.976Z,100.00
2023-03-05T23:57:49.391Z,100.00
